createdAt,value
2023-03-27T00:00:01.607Z,7.20
2023-03-27T00:02:38.689Z,7.20
2023-03-27T00:05:16.371Z,7.20
2023-03-27T00:07:55.688Z,7.10
2023-03-27T00:10:32.278Z,7.10
2023-03-27T00:13:10.120Z,7.10
2023-03-27T00:15:47.012Z,7.10
2023-03-27T00:18:23.432Z,7.10
2023-03-27T00:21:03.149Z,7.10
2023-03-27T00:23:39.477Z,7.10
2023-03-27T00:26:15.912Z,7.10
2023-03-27T00:28:54.915Z,7.10
2023-03-27T00:31:31.747Z,7.10
2023-03-27T00:34:08.291Z,7.10
2023-03-27T00:36:48.435Z,7.12
2023-03-27T00:39:25.055Z,7.20
2023-03-27T00:42:01.382Z,7.20
2023-03-27T00:44:39.655Z,7.20
2023-03-27T00:47:17.273Z,7.20
2023-03-27T00:49:55.122Z,7.20
2023-03-27T00:52:32.615Z,7.20
2023-03-27T00:55:16.581Z,7.20
2023-03-27T00:58:02.227Z,7.20
2023-03-27T01:00:39.215Z,7.18
2023-03-27T01:03:16.908Z,7.16
2023-03-27T01:05:54.461Z,7.10
2023-03-27T01:08:37.860Z,7.10
2023-03-27T01:11:33.396Z,7.10
2023-03-27T01:14:36.089Z,7.10
2023-03-27T01:17:40.381Z,7.10
2023-03-27T01:21:00.963Z,7.04
2023-03-27T01:24:38.662Z,7.02
2023-03-27T01:27:26.062Z,7.00
2023-03-27T01:30:19.897Z,7.00
2023-03-27T01:33:43.558Z,7.00
2023-03-27T01:36:55.954Z,6.94
2023-03-27T01:39:47.341Z,6.96
2023-03-27T01:42:33.323Z,6.90
2023-03-27T01:45:18.821Z,6.90
2023-03-27T01:48:06.852Z,6.90
2023-03-27T01:50:50.076Z,6.96
2023-03-27T01:53:33.865Z,6.90
2023-03-27T01:56:18.416Z,6.90
2023-03-27T01:59:04.067Z,6.90
2023-03-27T02:01:50.710Z,6.90
2023-03-27T02:04:34.638Z,6.82
2023-03-27T02:07:24.303Z,6.80
2023-03-27T02:10:08.372Z,6.80
2023-03-27T02:12:55.143Z,6.80
2023-03-27T02:15:38.260Z,6.80
2023-03-27T02:18:21.721Z,6.78
2023-03-27T02:20:58.295Z,6.70
2023-03-27T02:23:38.403Z,6.70
2023-03-27T02:26:17.742Z,6.70
2023-03-27T02:29:31.446Z,6.70
2023-03-27T02:32:33.988Z,6.70
2023-03-27T02:35:31.911Z,6.70
2023-03-27T02:38:20.509Z,6.70
2023-03-27T02:41:18.221Z,6.70
2023-03-27T02:44:12.580Z,6.70
2023-03-27T02:47:15.510Z,6.70
2023-03-27T02:49:58.767Z,6.70
2023-03-27T02:52:42.121Z,6.70
2023-03-27T02:55:25.369Z,6.70
2023-03-27T02:58:07.599Z,6.70
2023-03-27T03:00:56.221Z,6.70
2023-03-27T03:04:26.194Z,6.70
2023-03-27T03:07:18.725Z,6.70
2023-03-27T03:09:55.490Z,6.70
2023-03-27T03:12:32.789Z,6.70
2023-03-27T03:15:11.791Z,6.70
2023-03-27T03:17:48.217Z,6.70
2023-03-27T03:20:24.858Z,6.70
2023-03-27T03:23:02.502Z,6.68
2023-03-27T03:25:39.532Z,6.68
2023-03-27T03:28:18.250Z,6.70
2023-03-27T03:30:55.812Z,6.66
2023-03-27T03:33:34.471Z,6.70
2023-03-27T03:36:15.025Z,6.70
2023-03-27T03:38:51.696Z,6.68
2023-03-27T03:41:28.532Z,6.70
2023-03-27T03:44:09.982Z,6.70
2023-03-27T03:46:47.402Z,6.70
2023-03-27T03:49:27.198Z,6.70
2023-03-27T03:52:04.954Z,6.62
2023-03-27T03:54:42.649Z,6.60
2023-03-27T03:57:19.669Z,6.60
2023-03-27T04:00:12.592Z,6.60
2023-03-27T04:02:59.305Z,6.54
2023-03-27T04:05:36.267Z,6.54
2023-03-27T04:08:13.268Z,6.50
2023-03-27T04:10:55.777Z,6.50
2023-03-27T04:14:13.517Z,6.54
2023-03-27T04:16:51.934Z,6.54
2023-03-27T04:19:31.331Z,6.50
2023-03-27T04:22:10.743Z,6.50
2023-03-27T04:24:50.742Z,6.54
2023-03-27T04:27:30.591Z,6.54
2023-03-27T04:30:15.523Z,6.52
2023-03-27T04:33:46.610Z,6.50
2023-03-27T04:36:42.848Z,6.50
2023-03-27T04:39:22.516Z,6.50
2023-03-27T04:41:58.941Z,6.60
2023-03-27T04:44:37.813Z,6.60
2023-03-27T04:47:14.624Z,6.60
2023-03-27T04:49:51.896Z,6.56
2023-03-27T04:52:35.956Z,6.58
2023-03-27T04:55:14.847Z,6.60
2023-03-27T04:57:53.048Z,6.60
2023-03-27T05:00:30.340Z,6.60
2023-03-27T05:03:29.842Z,6.60
2023-03-27T05:06:12.250Z,6.60
2023-03-27T05:08:49.236Z,6.60
2023-03-27T05:11:33.357Z,6.60
2023-03-27T05:14:09.600Z,6.60
2023-03-27T05:16:46.681Z,6.60
2023-03-27T05:19:26.201Z,6.70
2023-03-27T05:22:07.903Z,6.70
2023-03-27T05:24:46.075Z,6.70
2023-03-27T05:27:22.874Z,6.70
2023-03-27T05:30:01.479Z,6.72
2023-03-27T05:32:38.868Z,6.80
2023-03-27T05:35:32.154Z,6.80
2023-03-27T05:38:09.425Z,6.80
2023-03-27T05:40:52.370Z,6.80
2023-03-27T05:43:28.794Z,6.80
2023-03-27T05:46:05.586Z,6.80
2023-03-27T05:48:42.569Z,6.86
2023-03-27T05:51:18.889Z,6.90
2023-03-27T05:53:56.969Z,6.90
2023-03-27T05:56:42.667Z,6.90
2023-03-27T05:59:19.394Z,6.90
2023-03-27T06:01:58.687Z,6.90
2023-03-27T06:04:41.624Z,6.90
2023-03-27T06:07:22.102Z,6.90
2023-03-27T06:09:58.572Z,6.90
2023-03-27T06:13:09.846Z,6.90
2023-03-27T06:15:57.870Z,6.90
2023-03-27T06:19:08.846Z,6.90
2023-03-27T06:21:51.657Z,6.90
2023-03-27T06:24:28.427Z,6.90
2023-03-27T06:27:05.422Z,6.88
2023-03-27T06:29:43.412Z,6.90
2023-03-27T06:32:19.794Z,6.90
2023-03-27T06:34:59.858Z,6.90
2023-03-27T06:38:02.869Z,6.90
2023-03-27T06:40:39.686Z,6.90
2023-03-27T06:43:19.124Z,6.90
2023-03-27T06:46:07.132Z,6.90
2023-03-27T06:49:02.833Z,6.90
2023-03-27T06:51:39.230Z,6.90
2023-03-27T06:54:15.792Z,6.90
2023-03-27T06:56:55.874Z,6.90
2023-03-27T06:59:32.559Z,6.90
2023-03-27T07:02:11.338Z,6.90
2023-03-27T07:05:07.435Z,7.00
2023-03-27T07:07:49.342Z,7.00
2023-03-27T07:10:28.007Z,7.00
2023-03-27T07:13:04.561Z,7.02
2023-03-27T07:15:41.248Z,7.08
2023-03-27T07:18:17.870Z,7.08
2023-03-27T07:20:58.325Z,7.10
2023-03-27T07:23:34.838Z,7.20
2023-03-27T07:26:13.965Z,7.20
2023-03-27T07:29:10.763Z,7.24
2023-03-27T07:31:57.010Z,7.30
2023-03-27T07:34:48.332Z,7.30
2023-03-27T07:37:44.804Z,7.30
2023-03-27T07:40:40.951Z,7.30
2023-03-27T07:43:56.059Z,7.30
2023-03-27T07:46:32.867Z,7.30
2023-03-27T07:49:12.197Z,7.30
2023-03-27T07:51:48.559Z,7.30
2023-03-27T07:54:27.101Z,7.30
2023-03-27T07:57:03.573Z,7.30
2023-03-27T07:59:45.424Z,7.30
2023-03-27T08:02:26.241Z,7.30
2023-03-27T08:05:05.490Z,7.30
2023-03-27T08:07:45.520Z,7.30
2023-03-27T08:10:24.185Z,7.30
2023-03-27T08:13:08.532Z,7.40
2023-03-27T08:15:44.859Z,7.32
2023-03-27T08:18:31.026Z,7.32
2023-03-27T08:21:11.578Z,7.40
2023-03-27T08:23:48.835Z,7.38
2023-03-27T08:26:43.758Z,7.38
2023-03-27T08:29:21.516Z,7.30
2023-03-27T08:31:58.019Z,7.30
2023-03-27T08:34:34.627Z,7.30
2023-03-27T08:37:11.150Z,7.36
2023-03-27T08:39:58.970Z,7.40
2023-03-27T08:42:44.451Z,7.50
2023-03-27T08:45:28.727Z,7.50
2023-03-27T08:48:15.887Z,7.50
2023-03-27T08:51:03.797Z,7.50
2023-03-27T08:53:50.754Z,7.60
2023-03-27T08:56:31.392Z,7.60
2023-03-27T08:59:11.868Z,7.60
2023-03-27T09:02:05.060Z,7.60
2023-03-27T09:04:55.278Z,7.60
2023-03-27T09:07:44.902Z,7.58
2023-03-27T09:10:42.021Z,7.50
2023-03-27T09:13:39.849Z,7.40
2023-03-27T09:16:26.990Z,7.32
2023-03-27T09:19:20.589Z,7.30
2023-03-27T09:22:05.773Z,7.20
2023-03-27T09:24:58.006Z,7.10
2023-03-27T09:27:54.467Z,7.00
2023-03-27T09:31:30.658Z,6.92
2023-03-27T09:34:14.035Z,6.90
2023-03-27T09:36:50.358Z,6.80
2023-03-27T09:39:32.677Z,6.80
2023-03-27T09:42:28.014Z,6.80
2023-03-27T09:45:10.984Z,6.80
2023-03-27T09:48:08.145Z,6.78
2023-03-27T09:50:51.667Z,6.80
2023-03-27T09:53:39.770Z,6.70
2023-03-27T09:56:29.589Z,6.60
2023-03-27T09:59:24.855Z,6.58
2023-03-27T10:02:18.045Z,6.50
2023-03-27T10:05:12.298Z,6.40
2023-03-27T10:07:49.725Z,6.40
2023-03-27T10:10:42.557Z,6.30
2023-03-27T10:13:31.355Z,6.30
2023-03-27T10:16:11.489Z,6.40
2023-03-27T10:18:57.054Z,6.40
2023-03-27T10:21:42.057Z,6.40
2023-03-27T10:24:34.781Z,6.40
2023-03-27T10:27:35.151Z,6.40
2023-03-27T10:30:41.590Z,6.40
2023-03-27T10:33:42.507Z,6.40
2023-03-27T10:36:40.864Z,6.46
2023-03-27T10:39:27.723Z,6.40
2023-03-27T10:42:17.344Z,6.40
2023-03-27T10:44:59.998Z,6.40
2023-03-27T10:47:38.540Z,6.40
2023-03-27T10:50:26.526Z,6.40
2023-03-27T10:53:17.661Z,6.22
2023-03-27T10:56:15.402Z,6.10
2023-03-27T10:59:01.026Z,5.94
2023-03-27T11:01:45.490Z,5.90
2023-03-27T11:04:26.060Z,5.90
2023-03-27T11:07:20.840Z,5.80
2023-03-27T11:10:13.155Z,5.70
2023-03-27T11:12:57.432Z,5.64
2023-03-27T11:15:42.233Z,5.60
2023-03-27T11:18:42.972Z,5.44
2023-03-27T11:21:28.473Z,5.40
2023-03-27T11:24:17.995Z,5.30
2023-03-27T11:27:14.721Z,5.30
2023-03-27T11:30:04.792Z,5.20
2023-03-27T11:32:57.588Z,5.10
2023-03-27T11:35:42.553Z,5.04
2023-03-27T11:39:27.768Z,4.90
2023-03-27T11:42:16.027Z,4.80
2023-03-27T11:44:53.618Z,4.70
2023-03-27T11:48:20.779Z,4.60
2023-03-27T11:51:07.105Z,4.40
2023-03-27T11:54:24.579Z,4.40
2023-03-27T11:57:15.351Z,4.30
2023-03-27T12:00:36.443Z,4.20
2023-03-27T12:04:12.834Z,4.10
2023-03-27T12:10:28.478Z,3.92
2023-03-27T12:14:01.632Z,3.82
2023-03-27T12:17:41.980Z,3.70
2023-03-27T12:21:04.682Z,3.54
2023-03-27T12:24:13.079Z,3.40
2023-03-27T12:28:04.365Z,3.30
2023-03-27T12:31:11.743Z,3.20
2023-03-27T12:34:04.721Z,3.10
2023-03-27T12:36:48.227Z,3.04
2023-03-27T12:50:47.027Z,2.90
2023-03-27T13:05:29.253Z,2.82
2023-03-27T13:29:55.192Z,2.72
2023-03-27T13:34:35.330Z,2.80
2023-03-27T13:39:12.925Z,2.80
2023-03-27T13:42:06.780Z,2.90
2023-03-27T13:45:11.553Z,2.90
2023-03-27T13:49:12.118Z,3.00
2023-03-27T13:53:10.628Z,3.00
2023-03-27T13:56:59.589Z,3.00
2023-03-27T14:00:19.524Z,2.90
2023-03-27T14:03:47.730Z,2.90
2023-03-27T14:07:37.611Z,2.90
2023-03-27T14:10:59.186Z,3.00
2023-03-27T14:14:07.996Z,3.00
2023-03-27T14:17:41.365Z,3.00
2023-03-27T14:20:27.742Z,3.00
2023-03-27T14:23:13.110Z,3.00
2023-03-27T14:26:46.575Z,3.00
2023-03-27T14:29:22.555Z,3.00
2023-03-27T14:32:07.715Z,3.00
2023-03-27T14:34:54.927Z,3.00
2023-03-27T14:38:01.282Z,3.00
2023-03-27T14:40:52.515Z,3.00
2023-03-27T14:43:34.322Z,3.00
2023-03-27T14:46:14.489Z,3.00
2023-03-27T14:48:58.030Z,3.00
2023-03-27T14:51:42.889Z,3.00
2023-03-27T14:54:29.525Z,2.90
2023-03-27T14:57:18.021Z,2.90
2023-03-27T15:00:06.747Z,2.90
2023-03-27T15:02:48.907Z,2.90
2023-03-27T15:05:26.611Z,2.90
2023-03-27T15:08:19.685Z,2.90
2023-03-27T15:11:23.634Z,2.90
2023-03-27T15:14:04.937Z,2.90
2023-03-27T15:16:44.905Z,2.90
2023-03-27T15:19:29.634Z,2.90
2023-03-27T15:22:13.939Z,2.90
2023-03-27T15:24:57.298Z,2.90
2023-03-27T15:27:39.570Z,2.90
2023-03-27T15:30:32.242Z,2.90
2023-03-27T15:33:15.868Z,2.90
2023-03-27T15:35:57.460Z,2.90
2023-03-27T15:38:40.083Z,2.90
2023-03-27T15:41:44.752Z,2.90
2023-03-27T15:44:27.707Z,2.90
2023-03-27T15:47:04.918Z,2.90
2023-03-27T15:49:44.416Z,2.90
2023-03-27T15:52:37.879Z,2.82
2023-03-27T15:55:31.014Z,2.80
2023-03-27T15:58:25.378Z,2.80
2023-03-27T16:01:18.374Z,2.80
2023-03-27T16:04:04.078Z,2.80
2023-03-27T16:06:45.900Z,2.80
2023-03-27T16:09:30.925Z,2.80
2023-03-27T16:12:08.305Z,2.72
2023-03-27T16:14:57.898Z,2.70
2023-03-27T16:17:47.615Z,2.70
2023-03-27T16:20:44.802Z,2.70
2023-03-27T16:23:21.404Z,2.70
2023-03-27T16:25:58.599Z,2.70
2023-03-27T16:28:36.669Z,2.70
2023-03-27T16:31:22.281Z,2.70
2023-03-27T16:33:59.145Z,2.68
2023-03-27T16:36:36.729Z,2.62
2023-03-27T16:39:13.362Z,2.60
2023-03-27T16:41:50.197Z,2.60
2023-03-27T16:44:26.775Z,2.60
2023-03-27T16:47:03.268Z,2.60
2023-03-27T16:49:40.164Z,2.60
2023-03-27T16:52:16.681Z,2.60
2023-03-27T16:54:54.226Z,2.54
2023-03-27T16:57:30.810Z,2.50
2023-03-27T17:00:09.712Z,2.50
2023-03-27T17:02:47.246Z,2.50
2023-03-27T17:05:24.509Z,2.50
2023-03-27T17:08:05.336Z,2.50
2023-03-27T17:10:43.093Z,2.50
2023-03-27T17:13:19.746Z,2.50
2023-03-27T17:15:57.179Z,2.50
2023-03-27T17:18:34.214Z,2.50
2023-03-27T17:21:12.086Z,2.46
2023-03-27T17:23:48.866Z,2.40
2023-03-27T17:26:31.337Z,2.40
2023-03-27T17:29:10.347Z,2.40
2023-03-27T17:31:46.868Z,2.40
2023-03-27T17:34:23.433Z,2.40
2023-03-27T17:37:00.207Z,2.40
2023-03-27T17:39:36.742Z,2.40
2023-03-27T17:42:13.594Z,2.34
2023-03-27T17:44:50.454Z,2.40
2023-03-27T17:47:27.463Z,2.32
2023-03-27T17:50:03.916Z,2.30
2023-03-27T17:52:42.225Z,2.30
2023-03-27T17:55:19.024Z,2.30
2023-03-27T17:58:08.208Z,2.30
2023-03-27T18:00:46.672Z,2.30
2023-03-27T18:03:24.817Z,2.30
2023-03-27T18:06:07.809Z,2.30
2023-03-27T18:08:44.798Z,2.26
2023-03-27T18:11:21.899Z,2.20
2023-03-27T18:13:58.506Z,2.20
2023-03-27T18:16:34.820Z,2.20
2023-03-27T18:19:12.383Z,2.20
2023-03-27T18:21:49.758Z,2.12
2023-03-27T18:24:26.382Z,2.10
2023-03-27T18:27:02.632Z,2.12
2023-03-27T18:29:39.391Z,2.12
2023-03-27T18:32:16.925Z,2.20
2023-03-27T18:34:53.570Z,2.20
2023-03-27T18:37:30.941Z,2.20
2023-03-27T18:40:11.024Z,2.14
2023-03-27T18:42:47.953Z,2.10
2023-03-27T18:45:24.799Z,2.00
2023-03-27T18:48:01.760Z,2.00
2023-03-27T18:50:38.204Z,1.90
2023-03-27T18:53:14.661Z,1.90
2023-03-27T18:55:58.582Z,1.82
2023-03-27T18:58:36.293Z,1.80
2023-03-27T19:01:14.879Z,1.80
2023-03-27T19:03:51.929Z,1.80
2023-03-27T19:06:28.562Z,1.70
2023-03-27T19:09:05.695Z,1.70
2023-03-27T19:11:43.980Z,1.70
2023-03-27T19:14:41.742Z,1.62
2023-03-27T19:18:21.157Z,1.60
2023-03-27T19:21:23.166Z,1.60
2023-03-27T19:24:13.907Z,1.60
2023-03-27T19:26:54.417Z,1.50
2023-03-27T19:29:31.474Z,1.50
2023-03-27T19:32:08.209Z,1.48
2023-03-27T19:34:45.463Z,1.40
2023-03-27T19:37:22.138Z,1.40
2023-03-27T19:39:59.880Z,1.40
2023-03-27T19:42:36.831Z,1.40
2023-03-27T19:45:14.903Z,1.32
2023-03-27T19:47:51.637Z,1.30
2023-03-27T19:50:28.285Z,1.30
2023-03-27T19:53:23.670Z,1.30
2023-03-27T19:56:01.412Z,1.30
2023-03-27T19:58:38.136Z,1.24
2023-03-27T20:01:15.463Z,1.24
2023-03-27T20:03:54.346Z,1.20
2023-03-27T20:06:31.336Z,1.20
2023-03-27T20:09:08.699Z,1.20
2023-03-27T20:11:46.771Z,1.20
2023-03-27T20:14:23.265Z,1.20
2023-03-27T20:17:05.030Z,1.20
2023-03-27T20:19:48.999Z,1.10
2023-03-27T20:22:26.733Z,1.10
2023-03-27T20:25:03.026Z,1.10
2023-03-27T20:27:40.332Z,1.10
2023-03-27T20:30:18.355Z,1.02
2023-03-27T20:32:58.624Z,1.00
2023-03-27T20:35:37.860Z,0.98
2023-03-27T20:38:16.744Z,0.90
2023-03-27T20:40:54.480Z,0.90
2023-03-27T20:43:35.944Z,0.88
2023-03-27T20:46:15.047Z,0.80
2023-03-27T20:48:54.179Z,0.80
2023-03-27T20:51:31.552Z,0.76
2023-03-27T20:54:10.154Z,0.70
2023-03-27T20:56:46.642Z,0.70
2023-03-27T20:59:26.241Z,0.70
2023-03-27T21:02:03.182Z,0.62
2023-03-27T21:04:39.590Z,0.60
2023-03-27T21:07:16.220Z,0.60
2023-03-27T21:09:54.836Z,0.60
2023-03-27T21:12:31.514Z,0.52
2023-03-27T21:15:09.780Z,0.50
2023-03-27T21:17:46.311Z,0.50
2023-03-27T21:20:23.099Z,0.50
2023-03-27T21:22:59.671Z,0.46
2023-03-27T21:25:38.188Z,0.40
2023-03-27T21:28:15.951Z,0.40
2023-03-27T21:30:52.441Z,0.40
2023-03-27T21:33:28.822Z,0.40
2023-03-27T21:36:05.935Z,0.40
2023-03-27T21:38:43.289Z,0.40
2023-03-27T21:41:21.449Z,0.38
2023-03-27T21:43:57.824Z,0.34
2023-03-27T21:46:34.191Z,0.30
2023-03-27T21:49:10.476Z,0.30
2023-03-27T21:51:47.102Z,0.30
2023-03-27T21:54:23.537Z,0.30
2023-03-27T21:56:59.734Z,0.30
2023-03-27T21:59:36.369Z,0.22
2023-03-27T22:02:12.734Z,0.20
2023-03-27T22:04:49.185Z,0.12
2023-03-27T22:07:25.792Z,0.10
2023-03-27T22:10:03.664Z,0.10
2023-03-27T22:12:42.401Z,0.08
2023-03-27T22:15:19.205Z,0.00
2023-03-27T22:17:56.298Z,0.00
2023-03-27T22:20:32.824Z,0.00
2023-03-27T22:23:09.203Z,-0.10
2023-03-27T22:25:51.848Z,-0.10
2023-03-27T22:28:29.770Z,-0.10
2023-03-27T22:31:06.590Z,-0.20
2023-03-27T22:33:43.865Z,-0.20
2023-03-27T22:36:21.046Z,-0.20
2023-03-27T22:38:57.378Z,-0.30
2023-03-27T22:41:33.980Z,-0.30
2023-03-27T22:44:11.275Z,-0.40
2023-03-27T22:46:47.679Z,-0.40
2023-03-27T22:49:24.533Z,-0.50
2023-03-27T22:52:00.876Z,-0.50
2023-03-27T22:54:37.242Z,-0.54
2023-03-27T22:57:13.798Z,-0.60
2023-03-27T22:59:51.112Z,-0.60
2023-03-27T23:02:27.880Z,-0.70
2023-03-27T23:05:04.404Z,-0.70
2023-03-27T23:07:40.637Z,-0.78
2023-03-27T23:10:17.717Z,-0.80
2023-03-27T23:12:54.020Z,-0.84
2023-03-27T23:15:31.246Z,-0.90
2023-03-27T23:18:08.897Z,-0.90
2023-03-27T23:20:45.819Z,-1.00
2023-03-27T23:23:22.458Z,-1.00
2023-03-27T23:25:59.629Z,-1.00
2023-03-27T23:28:41.067Z,-1.10
2023-03-27T23:31:21.193Z,-1.10
2023-03-27T23:33:57.863Z,-1.10
2023-03-27T23:36:34.250Z,-1.20
2023-03-27T23:39:10.827Z,-1.20
2023-03-27T23:41:47.338Z,-1.22
2023-03-27T23:44:23.947Z,-1.30
2023-03-27T23:47:00.427Z,-1.30
2023-03-27T23:49:37.313Z,-1.40
2023-03-27T23:52:13.879Z,-1.40
2023-03-27T23:54:50.241Z,-1.40
2023-03-27T23:57:26.712Z,-1.50
